sensor_id;sensor_type;location;lat;lon;timestamp;pressure;altitude;pressure_sealevel;temperature;humidity
73341;BME280;61578;52.002;5.468;2023-03-01T00:00:17;103152.03;;;0.53;66.31
73341;BME280;61578;52.002;5.468;2023-03-01T00:00:48;103146.72;;;0.47;66.19
73341;BME280;61578;52.002;5.468;2023-03-01T00:01:22;103139.75;;;0.46;66.44
73341;BME280;61578;52.002;5.468;2023-03-01T00:01:55;103146.75;;;0.49;66.72
73341;BME280;61578;52.002;5.468;2023-03-01T00:02:26;103152.00;;;0.49;66.21
73341;BME280;61578;52.002;5.468;2023-03-01T00:02:56;103142.44;;;0.51;66.51
73341;BME280;61578;52.002;5.468;2023-03-01T00:03:27;103145.91;;;0.50;66.66
73341;BME280;61578;52.002;5.468;2023-03-01T00:03:59;103142.34;;;0.45;66.43
73341;BME280;61578;52.002;5.468;2023-03-01T00:04:33;103100.19;;;0.22;66.59
73341;BME280;61578;52.002;5.468;2023-03-01T00:05:06;103139.69;;;0.43;66.86
73341;BME280;61578;52.002;5.468;2023-03-01T00:05:46;103148.50;;;0.51;66.48
73341;BME280;61578;52.002;5.468;2023-03-01T00:06:19;103143.19;;;0.44;66.22
73341;BME280;61578;52.002;5.468;2023-03-01T00:06:51;103148.50;;;0.51;66.75
73341;BME280;61578;52.002;5.468;2023-03-01T00:07:21;103143.28;;;0.48;66.46
73341;BME280;61578;52.002;5.468;2023-03-01T00:07:55;103139.81;;;0.51;66.22
73341;BME280;61578;52.002;5.468;2023-03-01T00:08:26;103151.16;;;0.53;66.43
73341;BME280;61578;52.002;5.468;2023-03-01T00:08:58;103152.03;;;0.53;66.22
73341;BME280;61578;52.002;5.468;2023-03-01T00:09:28;103151.16;;;0.53;65.97
73341;BME280;61578;52.002;5.468;2023-03-01T00:09:59;103103.69;;;0.22;66.58
73341;BME280;61578;52.002;5.468;2023-03-01T00:10:30;103154.69;;;0.55;66.61
73341;BME280;61578;52.002;5.468;2023-03-01T00:11:16;103156.41;;;0.54;66.83
73341;BME280;61578;52.002;5.468;2023-03-01T00:11:57;103151.16;;;0.53;66.35
73341;BME280;61578;52.002;5.468;2023-03-01T00:12:28;103103.69;;;0.22;66.80
73341;BME280;61578;52.002;5.468;2023-03-01T00:12:59;103094.97;;;0.22;66.70
73341;BME280;61578;52.002;5.468;2023-03-01T00:13:33;103154.69;;;0.55;66.64
73341;BME280;61578;52.002;5.468;2023-03-01T00:14:05;103121.31;;;0.37;66.27
73341;BME280;61578;52.002;5.468;2023-03-01T00:14:36;103100.19;;;0.20;66.20
73341;BME280;61578;52.002;5.468;2023-03-01T00:15:08;103140.69;;;0.50;66.24
73341;BME280;61578;52.002;5.468;2023-03-01T00:15:39;103137.16;;;0.48;66.19
73341;BME280;61578;52.002;5.468;2023-03-01T00:16:20;103150.38;;;0.58;66.01
73341;BME280;61578;52.002;5.468;2023-03-01T00:16:53;103147.81;;;0.63;66.05
73341;BME280;61578;52.002;5.468;2023-03-01T00:17:24;103157.41;;;0.64;66.33
73341;BME280;61578;52.002;5.468;2023-03-01T00:17:54;103136.41;;;0.56;65.73
73341;BME280;61578;52.002;5.468;2023-03-01T00:18:25;103132.94;;;0.57;65.82
73341;BME280;61578;52.002;5.468;2023-03-01T00:18:57;103093.34;;;0.31;65.49
73341;BME280;61578;52.002;5.468;2023-03-01T00:19:28;103146.94;;;0.62;66.06
73341;BME280;61578;52.002;5.468;2023-03-01T00:19:58;103137.34;;;0.60;65.71
73341;BME280;61578;52.002;5.468;2023-03-01T00:20:30;103093.44;;;0.36;65.67
73341;BME280;61578;52.002;5.468;2023-03-01T00:21:01;103154.84;;;0.67;66.03
73341;BME280;61578;52.002;5.468;2023-03-01T00:21:32;103148.75;;;0.66;66.38
73341;BME280;61578;52.002;5.468;2023-03-01T00:22:05;103153.06;;;0.64;66.07
73341;BME280;61578;52.002;5.468;2023-03-01T00:22:36;103142.56;;;0.61;65.82
73341;BME280;61578;52.002;5.468;2023-03-01T00:23:07;103147.81;;;0.63;66.02
73341;BME280;61578;52.002;5.468;2023-03-01T00:23:39;103147.78;;;0.61;65.92
73341;BME280;61578;52.002;5.468;2023-03-01T00:24:14;103152.16;;;0.59;65.95
73341;BME280;61578;52.002;5.468;2023-03-01T00:24:45;103150.41;;;0.60;66.05
73341;BME280;61578;52.002;5.468;2023-03-01T00:25:16;103151.25;;;0.59;65.83
73341;BME280;61578;52.002;5.468;2023-03-01T00:25:47;103144.28;;;0.58;66.27
73341;BME280;61578;52.002;5.468;2023-03-01T00:26:20;103143.34;;;0.54;66.26
73341;BME280;61578;52.002;5.468;2023-03-01T00:26:54;103099.47;;;0.32;66.31
73341;BME280;61578;52.002;5.468;2023-03-01T00:27:26;103139.88;;;0.55;66.35
73341;BME280;61578;52.002;5.468;2023-03-01T00:27:56;103153.03;;;0.60;66.42
73341;BME280;61578;52.002;5.468;2023-03-01T00:28:27;103149.53;;;0.59;66.37
73341;BME280;61578;52.002;5.468;2023-03-01T00:28:59;103143.34;;;0.54;66.33
73341;BME280;61578;52.002;5.468;2023-03-01T00:29:31;103144.31;;;0.59;66.32
73341;BME280;61578;52.002;5.468;2023-03-01T00:30:02;103144.31;;;0.59;66.71
73341;BME280;61578;52.002;5.468;2023-03-01T00:30:33;103142.50;;;0.57;66.29
73341;BME280;61578;52.002;5.468;2023-03-01T00:31:07;103081.91;;;0.20;66.42
73341;BME280;61578;52.002;5.468;2023-03-01T00:31:40;103139.97;;;0.60;66.86
73341;BME280;61578;52.002;5.468;2023-03-01T00:32:12;103140.69;;;0.51;66.32
73341;BME280;61578;52.002;5.468;2023-03-01T00:32:42;103143.44;;;0.60;66.17
73341;BME280;61578;52.002;5.468;2023-03-01T00:33:13;103152.16;;;0.62;66.26
73341;BME280;61578;52.002;5.468;2023-03-01T00:33:54;103143.44;;;0.62;66.54
73341;BME280;61578;52.002;5.468;2023-03-01T00:34:27;103143.44;;;0.60;66.13
73341;BME280;61578;52.002;5.468;2023-03-01T00:34:58;103139.06;;;0.59;66.00
73341;BME280;61578;52.002;5.468;2023-03-01T00:35:28;103140.81;;;0.59;66.12
73341;BME280;61578;52.002;5.468;2023-03-01T00:36:00;103142.56;;;0.60;66.28
73341;BME280;61578;52.002;5.468;2023-03-01T00:36:34;103139.94;;;0.58;65.86
73341;BME280;61578;52.002;5.468;2023-03-01T00:37:07;103135.59;;;0.59;66.35
73341;BME280;61578;52.002;5.468;2023-03-01T00:37:38;103100.34;;;0.32;66.25
73341;BME280;61578;52.002;5.468;2023-03-01T00:38:08;103113.66;;;0.49;66.27
73341;BME280;61578;52.002;5.468;2023-03-01T00:38:42;103132.97;;;0.59;65.90
73341;BME280;61578;52.002;5.468;2023-03-01T00:39:15;103148.69;;;0.60;66.10
73341;BME280;61578;52.002;5.468;2023-03-01T00:39:47;103128.59;;;0.58;65.93
73341;BME280;61578;52.002;5.468;2023-03-01T00:40:18;103128.72;;;0.67;64.96
73341;BME280;61578;52.002;5.468;2023-03-01T00:40:49;103107.72;;;0.59;65.39
73341;BME280;61578;52.002;5.468;2023-03-01T00:41:21;103134.94;;;0.77;65.57
73341;BME280;61578;52.002;5.468;2023-03-01T00:41:53;103134.94;;;0.77;65.13
73341;BME280;61578;52.002;5.468;2023-03-01T00:42:24;103130.53;;;0.74;65.12
73341;BME280;61578;52.002;5.468;2023-03-01T00:42:54;103140.19;;;0.78;65.45
73341;BME280;61578;52.002;5.468;2023-03-01T00:43:26;103134.06;;;0.76;65.69
73341;BME280;61578;52.002;5.468;2023-03-01T00:43:57;103136.66;;;0.74;65.34
73341;BME280;61578;52.002;5.468;2023-03-01T00:44:28;103130.53;;;0.71;65.50
73341;BME280;61578;52.002;5.468;2023-03-01T00:44:59;103133.97;;;0.71;65.40
73341;BME280;61578;52.002;5.468;2023-03-01T00:45:30;103087.47;;;0.46;65.00
73341;BME280;61578;52.002;5.468;2023-03-01T00:46:09;103137.47;;;0.72;65.35
73341;BME280;61578;52.002;5.468;2023-03-01T00:46:42;103145.31;;;0.72;65.44
73341;BME280;61578;52.002;5.468;2023-03-01T00:47:14;103137.47;;;0.72;65.65
73341;BME280;61578;52.002;5.468;2023-03-01T00:47:45;103125.22;;;0.66;65.24
73341;BME280;61578;52.002;5.468;2023-03-01T00:48:16;103141.88;;;0.74;65.54
73341;BME280;61578;52.002;5.468;2023-03-01T00:48:47;103136.59;;;0.70;65.79
73341;BME280;61578;52.002;5.468;2023-03-01T00:49:18;103139.19;;;0.68;65.66
73341;BME280;61578;52.002;5.468;2023-03-01T00:49:49;103138.34;;;0.72;65.87
73341;BME280;61578;52.002;5.468;2023-03-01T00:50:21;103139.25;;;0.73;65.50
73341;BME280;61578;52.002;5.468;2023-03-01T00:50:52;103151.47;;;0.74;65.50
73341;BME280;61578;52.002;5.468;2023-03-01T00:51:26;103120.78;;;0.62;65.28
73341;BME280;61578;52.002;5.468;2023-03-01T00:51:59;103143.59;;;0.72;64.96
73341;BME280;61578;52.002;5.468;2023-03-01T00:52:30;103137.47;;;0.72;65.38
73341;BME280;61578;52.002;5.468;2023-03-01T00:53:01;103135.75;;;0.71;65.60
73341;BME280;61578;52.002;5.468;2023-03-01T00:53:32;103139.22;;;0.71;64.91
73341;BME280;61578;52.002;5.468;2023-03-01T00:54:03;103138.34;;;0.72;65.21
73341;BME280;61578;52.002;5.468;2023-03-01T00:54:34;103134.00;;;0.73;65.00
73341;BME280;61578;52.002;5.468;2023-03-01T00:55:06;103128.75;;;0.70;65.01
73341;BME280;61578;52.002;5.468;2023-03-01T00:55:37;103139.22;;;0.71;65.14
73341;BME280;61578;52.002;5.468;2023-03-01T00:56:11;103134.88;;;0.72;64.88
73341;BME280;61578;52.002;5.468;2023-03-01T00:56:43;103083.06;;;0.42;64.73
73341;BME280;61578;52.002;5.468;2023-03-01T00:57:14;103124.38;;;0.69;65.22
73341;BME280;61578;52.002;5.468;2023-03-01T00:57:45;103131.38;;;0.70;65.26
73341;BME280;61578;52.002;5.468;2023-03-01T00:58:16;103076.94;;;0.39;65.44
73341;BME280;61578;52.002;5.468;2023-03-01T00:58:47;103135.75;;;0.72;65.64
73341;BME280;61578;52.002;5.468;2023-03-01T00:59:17;103141.88;;;0.74;65.42
73341;BME280;61578;52.002;5.468;2023-03-01T00:59:48;103057.63;;;0.29;65.75
73341;BME280;61578;52.002;5.468;2023-03-01T01:00:20;103133.97;;;0.71;65.58
73341;BME280;61578;52.002;5.468;2023-03-01T01:00:51;103133.13;;;0.71;65.74
73341;BME280;61578;52.002;5.468;2023-03-01T01:01:26;103126.13;;;0.71;65.49
73341;BME280;61578;52.002;5.468;2023-03-01T01:02:02;103129.66;;;0.70;65.37
73341;BME280;61578;52.002;5.468;2023-03-01T01:02:34;103129.63;;;0.72;65.46
73341;BME280;61578;52.002;5.468;2023-03-01T01:03:05;103118.22;;;0.65;65.03
73341;BME280;61578;52.002;5.468;2023-03-01T01:03:36;103069.00;;;0.32;65.27
73341;BME280;61578;52.002;5.468;2023-03-01T01:04:10;103112.16;;;0.66;64.98
73341;BME280;61578;52.002;5.468;2023-03-01T01:04:43;103121.81;;;0.73;65.25
73341;BME280;61578;52.002;5.468;2023-03-01T01:05:14;103122.72;;;0.76;65.31
73341;BME280;61578;52.002;5.468;2023-03-01T01:05:45;103115.78;;;0.78;65.19
73341;BME280;61578;52.002;5.468;2023-03-01T01:06:28;103117.53;;;0.79;65.07
73341;BME280;61578;52.002;5.468;2023-03-01T01:07:00;103120.16;;;0.79;65.64
73341;BME280;61578;52.002;5.468;2023-03-01T01:07:31;103110.56;;;0.79;65.94
73341;BME280;61578;52.002;5.468;2023-03-01T01:08:03;103098.25;;;0.69;65.45
73341;BME280;61578;52.002;5.468;2023-03-01T01:08:34;103113.16;;;0.78;64.71
73341;BME280;61578;52.002;5.468;2023-03-01T01:09:06;103109.66;;;0.76;65.62
73341;BME280;61578;52.002;5.468;2023-03-01T01:09:37;103120.94;;;0.73;65.12
73341;BME280;61578;52.002;5.468;2023-03-01T01:10:08;103113.88;;;0.66;65.40
73341;BME280;61578;52.002;5.468;2023-03-01T01:10:44;103113.94;;;0.72;65.61
73341;BME280;61578;52.002;5.468;2023-03-01T01:11:16;103114.94;;;0.80;65.10
73341;BME280;61578;52.002;5.468;2023-03-01T01:11:50;103107.94;;;0.78;64.67
73341;BME280;61578;52.002;5.468;2023-03-01T01:12:22;103116.63;;;0.77;65.60
73341;BME280;61578;52.002;5.468;2023-03-01T01:12:53;103118.28;;;0.71;65.67
73341;BME280;61578;52.002;5.468;2023-03-01T01:13:23;103105.13;;;0.64;65.47
73341;BME280;61578;52.002;5.468;2023-03-01T01:13:58;103104.34;;;0.69;65.51
73341;BME280;61578;52.002;5.468;2023-03-01T01:14:29;103120.88;;;0.67;65.27
73341;BME280;61578;52.002;5.468;2023-03-01T01:15:01;103114.69;;;0.62;65.50
73341;BME280;61578;52.002;5.468;2023-03-01T01:15:34;103112.94;;;0.62;65.67
73341;BME280;61578;52.002;5.468;2023-03-01T01:16:05;103102.41;;;0.55;65.71
73341;BME280;61578;52.002;5.468;2023-03-01T01:16:37;103116.41;;;0.61;65.73
73341;BME280;61578;52.002;5.468;2023-03-01T01:17:08;103118.19;;;0.61;66.23
73341;BME280;61578;52.002;5.468;2023-03-01T01:17:39;103119.91;;;0.59;66.05
73341;BME280;61578;52.002;5.468;2023-03-01T01:18:10;103115.56;;;0.62;66.13
73341;BME280;61578;52.002;5.468;2023-03-01T01:18:42;103114.69;;;0.62;66.53
73341;BME280;61578;52.002;5.468;2023-03-01T01:19:14;103112.06;;;0.62;66.14
73341;BME280;61578;52.002;5.468;2023-03-01T01:19:45;103107.66;;;0.56;66.28
73341;BME280;61578;52.002;5.468;2023-03-01T01:20:20;103119.00;;;0.58;65.99
73341;BME280;61578;52.002;5.468;2023-03-01T01:20:51;103106.84;;;0.60;66.23
73341;BME280;61578;52.002;5.468;2023-03-01T01:21:23;103105.91;;;0.55;65.98
73341;BME280;61578;52.002;5.468;2023-03-01T01:21:55;103107.69;;;0.58;66.12
73341;BME280;61578;52.002;5.468;2023-03-01T01:22:26;103105.94;;;0.58;66.32
73341;BME280;61578;52.002;5.468;2023-03-01T01:22:56;103097.16;;;0.53;65.94
73341;BME280;61578;52.002;5.468;2023-03-01T01:23:28;103049.69;;;0.21;66.04
73341;BME280;61578;52.002;5.468;2023-03-01T01:23:59;103096.28;;;0.54;65.81
73341;BME280;61578;52.002;5.468;2023-03-01T01:24:32;103092.78;;;0.51;65.71
73341;BME280;61578;52.002;5.468;2023-03-01T01:25:03;103095.41;;;0.54;65.86
73341;BME280;61578;52.002;5.468;2023-03-01T01:25:35;103092.72;;;0.48;66.25
73341;BME280;61578;52.002;5.468;2023-03-01T01:26:09;103089.22;;;0.46;66.25
73341;BME280;61578;52.002;5.468;2023-03-01T01:26:43;103104.06;;;0.48;65.98
73341;BME280;61578;52.002;5.468;2023-03-01T01:27:14;103102.34;;;0.49;65.55
73341;BME280;61578;52.002;5.468;2023-03-01T01:27:45;103098.84;;;0.48;66.25
73341;BME280;61578;52.002;5.468;2023-03-01T01:28:15;103093.50;;;0.41;66.19
73341;BME280;61578;52.002;5.468;2023-03-01T01:28:50;103103.16;;;0.46;66.18
73341;BME280;61578;52.002;5.468;2023-03-01T01:29:22;103099.69;;;0.47;66.70
73341;BME280;61578;52.002;5.468;2023-03-01T01:29:55;103094.38;;;0.40;66.45
73341;BME280;61578;52.002;5.468;2023-03-01T01:30:26;103095.28;;;0.45;66.41
73341;BME280;61578;52.002;5.468;2023-03-01T01:30:57;103076.84;;;0.34;66.70
73341;BME280;61578;52.002;5.468;2023-03-01T01:31:29;103087.47;;;0.45;66.36
73341;BME280;61578;52.002;5.468;2023-03-01T01:32:00;103098.72;;;0.39;66.20
73341;BME280;61578;52.002;5.468;2023-03-01T01:32:31;103099.63;;;0.43;66.29
73341;BME280;61578;52.002;5.468;2023-03-01T01:33:02;103050.44;;;0.14;66.52
73341;BME280;61578;52.002;5.468;2023-03-01T01:33:33;103094.38;;;0.41;66.23
73341;BME280;61578;52.002;5.468;2023-03-01T01:34:07;103094.38;;;0.41;66.27
73341;BME280;61578;52.002;5.468;2023-03-01T01:34:41;103082.09;;;0.34;66.47
73341;BME280;61578;52.002;5.468;2023-03-01T01:35:15;103093.44;;;0.36;66.81
73341;BME280;61578;52.002;5.468;2023-03-01T01:35:46;103024.06;;;-0.04;66.32
73341;BME280;61578;52.002;5.468;2023-03-01T01:36:17;103078.63;;;0.35;66.34
73341;BME280;61578;52.002;5.468;2023-03-01T01:36:52;103089.94;;;0.35;66.56
73341;BME280;61578;52.002;5.468;2023-03-01T01:37:24;103040.75;;;0.06;66.22
73341;BME280;61578;52.002;5.468;2023-03-01T01:38:01;103088.22;;;0.36;66.53
73341;BME280;61578;52.002;5.468;2023-03-01T01:38:32;103098.63;;;0.34;67.09
73341;BME280;61578;52.002;5.468;2023-03-01T01:39:04;103095.16;;;0.34;66.91
73341;BME280;61578;52.002;5.468;2023-03-01T01:39:35;103079.41;;;0.28;67.13
73341;BME280;61578;52.002;5.468;2023-03-01T01:40:06;103081.19;;;0.30;66.70
73341;BME280;61578;52.002;5.468;2023-03-01T01:40:48;103082.91;;;0.30;66.66
73341;BME280;61578;52.002;5.468;2023-03-01T01:41:20;103084.63;;;0.31;66.74
73341;BME280;61578;52.002;5.468;2023-03-01T01:41:52;103091.63;;;0.30;66.43
73341;BME280;61578;52.002;5.468;2023-03-01T01:42:23;103096.84;;;0.29;66.36
73341;BME280;61578;52.002;5.468;2023-03-01T01:42:53;103091.56;;;0.27;67.13
73341;BME280;61578;52.002;5.468;2023-03-01T01:43:30;103084.53;;;0.23;66.83
73341;BME280;61578;52.002;5.468;2023-03-01T01:44:48;103081.94;;;0.23;66.60
73341;BME280;61578;52.002;5.468;2023-03-01T01:45:40;103088.00;;;0.22;66.89
73341;BME280;61578;52.002;5.468;2023-03-01T01:46:32;103091.50;;;0.23;67.08
73341;BME280;61578;52.002;5.468;2023-03-01T01:47:17;103091.53;;;0.24;67.07
73341;BME280;61578;52.002;5.468;2023-03-01T01:47:51;103079.28;;;0.22;66.88
73341;BME280;61578;52.002;5.468;2023-03-01T01:48:32;103090.66;;;0.24;66.89
73341;BME280;61578;52.002;5.468;2023-03-01T01:49:58;103094.13;;;0.24;67.07
73341;BME280;61578;52.002;5.468;2023-03-01T01:50:35;103093.31;;;0.27;66.71
73341;BME280;61578;52.002;5.468;2023-03-01T01:51:20;103088.09;;;0.27;67.07
73341;BME280;61578;52.002;5.468;2023-03-01T01:52:40;103080.16;;;0.22;66.83
73341;BME280;61578;52.002;5.468;2023-03-01T01:53:17;103084.66;;;0.29;67.49
73341;BME280;61578;52.002;5.468;2023-03-01T01:53:56;103089.88;;;0.29;66.89
73341;BME280;61578;52.002;5.468;2023-03-01T01:55:26;103086.38;;;0.29;66.96
73341;BME280;61578;52.002;5.468;2023-03-01T01:56:01;103063.63;;;0.20;66.33
73341;BME280;61578;52.002;5.468;2023-03-01T01:56:37;103081.97;;;0.25;66.59
73341;BME280;61578;52.002;5.468;2023-03-01T01:57:20;103080.22;;;0.25;66.28
73341;BME280;61578;52.002;5.468;2023-03-01T01:58:02;103085.47;;;0.27;66.82
73341;BME280;61578;52.002;5.468;2023-03-01T01:58:37;103076.69;;;0.23;66.63
73341;BME280;61578;52.002;5.468;2023-03-01T01:59:09;103078.47;;;0.24;67.00
73341;BME280;61578;52.002;5.468;2023-03-01T01:59:47;103083.69;;;0.24;66.87
73341;BME280;61578;52.002;5.468;2023-03-01T02:00:26;103071.44;;;0.22;66.95
73341;BME280;61578;52.002;5.468;2023-03-01T02:00:58;103083.69;;;0.24;66.39
73341;BME280;61578;52.002;5.468;2023-03-01T02:01:31;103081.06;;;0.24;66.54
73341;BME280;61578;52.002;5.468;2023-03-01T02:02:04;103025.84;;;-0.03;66.45
73341;BME280;61578;52.002;5.468;2023-03-01T02:02:36;103077.59;;;0.24;66.60
73341;BME280;61578;52.002;5.468;2023-03-01T02:03:15;103081.97;;;0.25;66.45
73341;BME280;61578;52.002;5.468;2023-03-01T02:03:50;103080.25;;;0.27;66.58
73341;BME280;61578;52.002;5.468;2023-03-01T02:04:22;103078.50;;;0.27;66.71
73341;BME280;61578;52.002;5.468;2023-03-01T02:05:03;103078.53;;;0.29;66.70
73341;BME280;61578;52.002;5.468;2023-03-01T02:05:49;103080.31;;;0.30;66.27
73341;BME280;61578;52.002;5.468;2023-03-01T02:06:42;103058.38;;;0.22;66.36
73341;BME280;61578;52.002;5.468;2023-03-01T02:07:23;103070.72;;;0.30;66.29
73341;BME280;61578;52.002;5.468;2023-03-01T02:07:56;103070.69;;;0.27;66.57
73341;BME280;61578;52.002;5.468;2023-03-01T02:08:37;103069.84;;;0.30;66.79
73341;BME280;61578;52.002;5.468;2023-03-01T02:09:14;103074.19;;;0.31;66.41
73341;BME280;61578;52.002;5.468;2023-03-01T02:09:49;103071.56;;;0.28;66.43
73341;BME280;61578;52.002;5.468;2023-03-01T02:10:23;103073.34;;;0.32;66.75
73341;BME280;61578;52.002;5.468;2023-03-01T02:10:57;103006.69;;;-0.04;66.17
73341;BME280;61578;52.002;5.468;2023-03-01T02:11:34;103073.38;;;0.33;66.27
73341;BME280;61578;52.002;5.468;2023-03-01T02:12:08;103071.56;;;0.31;65.85
73341;BME280;61578;52.002;5.468;2023-03-01T02:12:39;103070.69;;;0.27;66.47
73341;BME280;61578;52.002;5.468;2023-03-01T02:13:11;103075.91;;;0.27;66.58
73341;BME280;61578;52.002;5.468;2023-03-01T02:13:43;103068.97;;;0.31;66.62
73341;BME280;61578;52.002;5.468;2023-03-01T02:14:17;103069.81;;;0.27;66.72
73341;BME280;61578;52.002;5.468;2023-03-01T02:14:51;103075.00;;;0.25;66.96
73341;BME280;61578;52.002;5.468;2023-03-01T02:15:23;103070.56;;;0.21;66.74
73341;BME280;61578;52.002;5.468;2023-03-01T02:15:57;103078.47;;;0.24;66.86
73341;BME280;61578;52.002;5.468;2023-03-01T02:16:28;103022.41;;;-0.01;66.80
73341;BME280;61578;52.002;5.468;2023-03-01T02:16:59;103070.63;;;0.24;67.45
73341;BME280;61578;52.002;5.468;2023-03-01T02:17:30;103075.84;;;0.24;66.81
73341;BME280;61578;52.002;5.468;2023-03-01T02:18:04;103062.72;;;0.18;66.43
73341;BME280;61578;52.002;5.468;2023-03-01T02:18:38;103074.09;;;0.23;66.57
73341;BME280;61578;52.002;5.468;2023-03-01T02:19:25;103032.84;;;-0.01;66.48
73341;BME280;61578;52.002;5.468;2023-03-01T02:21:17;103067.09;;;0.22;66.62
73341;BME280;61578;52.002;5.468;2023-03-01T02:22:55;103069.72;;;0.22;67.31
73341;BME280;61578;52.002;5.468;2023-03-01T02:23:27;103072.34;;;0.22;66.95
73341;BME280;61578;52.002;5.468;2023-03-01T02:24:16;103067.97;;;0.20;67.06
73341;BME280;61578;52.002;5.468;2023-03-01T02:25:58;103083.78;;;0.30;66.46
73341;BME280;61578;52.002;5.468;2023-03-01T02:26:51;103073.34;;;0.32;67.41
73341;BME280;61578;52.002;5.468;2023-03-01T02:27:40;103067.22;;;0.31;66.79
73341;BME280;61578;52.002;5.468;2023-03-01T02:28:48;103062.00;;;0.31;66.48
73341;BME280;61578;52.002;5.468;2023-03-01T02:29:20;103064.66;;;0.34;66.99
73341;BME280;61578;52.002;5.468;2023-03-01T02:29:52;103064.63;;;0.31;66.64
73341;BME280;61578;52.002;5.468;2023-03-01T02:30:24;103062.00;;;0.31;66.43
73341;BME280;61578;52.002;5.468;2023-03-01T02:30:56;103072.53;;;0.36;66.31
73341;BME280;61578;52.002;5.468;2023-03-01T02:31:45;103002.41;;;0.03;66.19
73341;BME280;61578;52.002;5.468;2023-03-01T02:32:18;103071.69;;;0.37;66.26
73341;BME280;61578;52.002;5.468;2023-03-01T02:32:57;103063.00;;;0.40;66.68
73341;BME280;61578;52.002;5.468;2023-03-01T02:33:37;103067.38;;;0.41;66.60
73341;BME280;61578;52.002;5.468;2023-03-01T02:34:20;103057.81;;;0.43;66.36
73341;BME280;61578;52.002;5.468;2023-03-01T02:34:54;103056.06;;;0.43;66.46
73341;BME280;61578;52.002;5.468;2023-03-01T02:35:26;103070.94;;;0.47;66.42
73341;BME280;61578;52.002;5.468;2023-03-01T02:35:59;103048.22;;;0.43;66.53
73341;BME280;61578;52.002;5.468;2023-03-01T02:36:39;103056.13;;;0.46;66.24
73341;BME280;61578;52.002;5.468;2023-03-01T02:37:15;103047.47;;;0.50;66.00
73341;BME280;61578;52.002;5.468;2023-03-01T02:37:55;103058.03;;;0.58;65.70
73341;BME280;61578;52.002;5.468;2023-03-01T02:38:28;103053.69;;;0.60;66.12
73341;BME280;61578;52.002;5.468;2023-03-01T02:39:03;103055.44;;;0.62;65.50
73341;BME280;61578;52.002;5.468;2023-03-01T02:39:44;103057.28;;;0.68;65.39
73341;BME280;61578;52.002;5.468;2023-03-01T02:40:19;103066.03;;;0.70;65.73
73341;BME280;61578;52.002;5.468;2023-03-01T02:40:52;103011.69;;;0.45;65.97
73341;BME280;61578;52.002;5.468;2023-03-01T02:41:30;103051.19;;;0.69;65.32
73341;BME280;61578;52.002;5.468;2023-03-01T02:42:06;103021.34;;;0.50;65.50
73341;BME280;61578;52.002;5.468;2023-03-01T02:42:51;103049.38;;;0.65;65.84
73341;BME280;61578;52.002;5.468;2023-03-01T02:43:30;103055.50;;;0.67;66.13
73341;BME280;61578;52.002;5.468;2023-03-01T02:44:04;103043.22;;;0.61;66.27
73341;BME280;61578;52.002;5.468;2023-03-01T02:44:36;103050.19;;;0.59;66.34
73341;BME280;61578;52.002;5.468;2023-03-01T02:45:07;103056.31;;;0.60;66.17
73341;BME280;61578;52.002;5.468;2023-03-01T02:45:47;103058.06;;;0.62;65.88
73341;BME280;61578;52.002;5.468;2023-03-01T02:46:25;103051.00;;;0.55;66.00
73341;BME280;61578;52.002;5.468;2023-03-01T02:47:01;103056.25;;;0.57;66.50
73341;BME280;61578;52.002;5.468;2023-03-01T02:47:33;102997.47;;;0.24;66.20
73341;BME280;61578;52.002;5.468;2023-03-01T02:48:04;103046.59;;;0.50;65.97
73341;BME280;61578;52.002;5.468;2023-03-01T02:48:47;103047.53;;;0.55;66.29
73341;BME280;61578;52.002;5.468;2023-03-01T02:49:31;103049.31;;;0.57;66.23
73341;BME280;61578;52.002;5.468;2023-03-01T02:50:34;103053.69;;;0.58;66.77
73341;BME280;61578;52.002;5.468;2023-03-01T02:55:48;102993.09;;;0.22;66.66
73341;BME280;61578;52.002;5.468;2023-03-01T02:56:20;103042.25;;;0.50;66.93
73341;BME280;61578;52.002;5.468;2023-03-01T02:56:52;103050.03;;;0.47;66.86
73341;BME280;61578;52.002;5.468;2023-03-01T02:57:26;103039.63;;;0.49;66.85
73341;BME280;61578;52.002;5.468;2023-03-01T02:58:02;103043.09;;;0.48;67.22
73341;BME280;61578;52.002;5.468;2023-03-01T02:58:33;103042.16;;;0.44;66.81
73341;BME280;61578;52.002;5.468;2023-03-01T02:59:21;103036.03;;;0.44;67.19
73341;BME280;61578;52.002;5.468;2023-03-01T02:59:58;103044.72;;;0.40;66.74
73341;BME280;61578;52.002;5.468;2023-03-01T03:00:40;103048.13;;;0.34;67.67
73341;BME280;61578;52.002;5.468;2023-03-01T03:01:21;103024.56;;;0.29;68.08
73341;BME280;61578;52.002;5.468;2023-03-01T03:01:55;103042.88;;;0.34;67.36
73341;BME280;61578;52.002;5.468;2023-03-01T03:02:29;103038.50;;;0.30;67.00
73341;BME280;61578;52.002;5.468;2023-03-01T03:03:07;103042.84;;;0.29;67.53
73341;BME280;61578;52.002;5.468;2023-03-01T03:03:38;103048.09;;;0.32;67.43
73341;BME280;61578;52.002;5.468;2023-03-01T03:04:14;103035.88;;;0.31;67.28
73341;BME280;61578;52.002;5.468;2023-03-01T03:04:48;103033.31;;;0.34;67.38
73341;BME280;61578;52.002;5.468;2023-03-01T03:05:30;103008.75;;;0.19;67.25
73341;BME280;61578;52.002;5.468;2023-03-01T03:06:02;103038.72;;;0.47;67.00
73341;BME280;61578;52.002;5.468;2023-03-01T03:06:43;103034.34;;;0.46;66.66
73341;BME280;61578;52.002;5.468;2023-03-01T03:07:15;103040.53;;;0.54;66.39
73341;BME280;61578;52.002;5.468;2023-03-01T03:07:47;103046.63;;;0.54;66.76
73341;BME280;61578;52.002;5.468;2023-03-01T03:08:18;103043.09;;;0.48;66.98
73341;BME280;61578;52.002;5.468;2023-03-01T03:08:54;103036.16;;;0.50;66.75
73341;BME280;61578;52.002;5.468;2023-03-01T03:09:24;103045.75;;;0.51;66.46
73341;BME280;61578;52.002;5.468;2023-03-01T03:09:55;103040.50;;;0.49;66.78
73341;BME280;61578;52.002;5.468;2023-03-01T03:10:29;103041.34;;;0.48;66.55
73341;BME280;61578;52.002;5.468;2023-03-01T03:11:05;103035.13;;;0.42;66.66
73341;BME280;61578;52.002;5.468;2023-03-01T03:11:36;103042.16;;;0.44;66.80
73341;BME280;61578;52.002;5.468;2023-03-01T03:12:09;103056.13;;;0.46;66.89